createdAt,value
2018-09-10T00:00:54.914Z,16.12
2018-09-10T00:03:24.789Z,16.07
2018-09-10T00:05:54.630Z,15.96
2018-09-10T00:08:24.588Z,16.02
2018-09-10T00:10:54.738Z,16.04
2018-09-10T00:13:24.588Z,16.00
2018-09-10T00:15:54.442Z,16.01
2018-09-10T00:18:24.364Z,15.97
2018-09-10T00:24:30.166Z,15.94
2018-09-10T00:27:00.031Z,15.92
2018-09-10T00:29:29.841Z,15.84
2018-09-10T00:31:59.663Z,15.87
2018-09-10T00:34:29.500Z,15.84
2018-09-10T00:36:59.364Z,15.79
2018-09-10T00:39:29.186Z,15.69
2018-09-10T00:41:59.016Z,15.79
2018-09-10T00:44:28.856Z,15.78
2018-09-10T00:46:58.744Z,15.67
2018-09-10T00:49:28.734Z,15.71
2018-09-10T00:51:58.604Z,15.66
2018-09-10T00:54:28.449Z,15.55
2018-09-10T00:56:58.304Z,15.36
2018-09-10T00:59:28.136Z,15.32
2018-09-10T01:01:58.095Z,15.29
2018-09-10T01:04:27.909Z,15.25
2018-09-10T01:06:57.985Z,15.29
2018-09-10T01:09:27.842Z,15.25
2018-09-10T01:11:57.676Z,15.23
2018-09-10T01:14:27.511Z,15.23
2018-09-10T01:16:57.379Z,15.19
2018-09-10T01:19:27.878Z,15.34
2018-09-10T01:21:57.730Z,15.52
2018-09-10T01:24:27.694Z,15.42
2018-09-10T01:26:57.520Z,15.48
2018-09-10T01:29:27.398Z,15.27
2018-09-10T01:31:57.254Z,15.45
2018-09-10T01:34:32.336Z,15.20
2018-09-10T01:37:02.180Z,15.37
2018-09-10T01:39:32.102Z,15.30
2018-09-10T01:42:02.144Z,15.28
2018-09-10T01:44:32.127Z,15.03
2018-09-10T01:47:02.311Z,14.95
2018-09-10T01:49:32.178Z,14.88
2018-09-10T01:52:01.990Z,14.79
2018-09-10T01:54:32.205Z,14.89
2018-09-10T01:57:02.075Z,14.70
2018-09-10T01:59:31.919Z,14.67
2018-09-10T02:02:01.800Z,14.64
2018-09-10T02:04:31.680Z,14.63
2018-09-10T02:07:01.744Z,14.77
2018-09-10T02:09:31.633Z,14.96
2018-09-10T02:12:03.552Z,14.91
2018-09-10T02:14:33.430Z,14.82
2018-09-10T02:17:03.596Z,14.82
2018-09-10T02:19:33.689Z,14.90
2018-09-10T02:22:03.549Z,14.98
2018-09-10T02:24:33.377Z,14.94
2018-09-10T02:27:03.209Z,14.80
2018-09-10T02:29:33.075Z,14.82
2018-09-10T02:32:03.039Z,14.69
2018-09-10T02:34:32.869Z,14.67
2018-09-10T02:37:02.717Z,14.59
2018-09-10T02:39:32.573Z,14.60
2018-09-10T02:42:02.387Z,14.37
2018-09-10T02:44:32.691Z,14.26
2018-09-10T02:47:02.568Z,14.25
2018-09-10T02:49:32.523Z,14.22
2018-09-10T02:52:02.698Z,14.20
2018-09-10T02:54:32.660Z,14.30
2018-09-10T02:57:02.627Z,14.36
2018-09-10T02:59:32.538Z,14.51
2018-09-10T03:02:02.414Z,14.56
2018-09-10T03:04:32.536Z,14.65
2018-09-10T03:07:02.360Z,14.51
2018-09-10T03:13:07.883Z,14.26
2018-09-10T03:15:37.710Z,14.16
2018-09-10T03:18:07.604Z,13.92
2018-09-10T03:20:37.421Z,14.01
2018-09-10T03:23:07.636Z,14.09
2018-09-10T03:25:37.655Z,14.11
2018-09-10T03:28:07.449Z,14.24
2018-09-10T03:30:37.372Z,14.22
2018-09-10T03:33:07.270Z,14.20
2018-09-10T03:35:37.223Z,14.29
2018-09-10T03:38:07.328Z,14.34
2018-09-10T03:40:37.174Z,14.40
2018-09-10T03:43:07.072Z,14.40
2018-09-10T03:45:36.896Z,14.47
2018-09-10T03:48:06.765Z,14.41
2018-09-10T03:50:36.712Z,14.34
2018-09-10T03:53:06.594Z,14.20
2018-09-10T03:55:36.420Z,14.25
2018-09-10T03:58:06.296Z,14.17
2018-09-10T04:00:36.759Z,14.09
2018-09-10T04:03:06.898Z,13.97
2018-09-10T04:05:36.720Z,14.08
2018-09-10T04:08:07.424Z,14.09
2018-09-10T04:10:37.276Z,14.12
2018-09-10T04:13:07.231Z,14.12
2018-09-10T04:15:37.346Z,13.95
2018-09-10T04:18:07.593Z,13.95
2018-09-10T04:20:37.480Z,13.83
2018-09-10T04:23:07.767Z,13.85
2018-09-10T04:25:37.657Z,14.00
2018-09-10T04:28:08.471Z,13.94
2018-09-10T04:30:38.348Z,13.89
2018-09-10T04:33:08.249Z,13.84
2018-09-10T04:35:38.128Z,13.90
2018-09-10T04:38:07.934Z,13.98
2018-09-10T04:40:38.539Z,13.88
2018-09-10T04:43:08.746Z,14.00
2018-09-10T04:45:38.631Z,13.97
2018-09-10T04:48:08.430Z,13.74
2018-09-10T04:50:38.328Z,13.79
2018-09-10T04:53:08.314Z,13.82
2018-09-10T04:55:38.199Z,13.82
2018-09-10T04:58:08.194Z,13.71
2018-09-10T05:00:38.247Z,13.88
2018-09-10T05:03:08.218Z,14.01
2018-09-10T05:05:38.282Z,14.07
2018-09-10T05:08:08.060Z,14.06
2018-09-10T05:10:37.890Z,14.06
2018-09-10T05:13:07.806Z,14.06
2018-09-10T05:15:37.652Z,14.09
2018-09-10T05:18:07.485Z,14.12
2018-09-10T05:25:03.309Z,14.08
2018-09-10T05:27:33.289Z,14.02
2018-09-10T05:30:03.125Z,14.02
2018-09-10T05:32:33.122Z,14.00
2018-09-10T05:35:03.068Z,14.04
2018-09-10T05:37:32.840Z,14.08
2018-09-10T05:40:02.657Z,14.02
2018-09-10T05:42:32.504Z,14.02
2018-09-10T05:45:02.339Z,14.01
2018-09-10T05:47:32.219Z,14.05
2018-09-10T05:50:02.207Z,14.10
2018-09-10T05:52:32.956Z,14.01
2018-09-10T05:55:02.853Z,14.00
2018-09-10T05:57:32.684Z,14.08
2018-09-10T06:00:02.497Z,14.11
2018-09-10T06:02:32.307Z,14.18
2018-09-10T06:05:02.017Z,14.23
2018-09-10T06:07:31.825Z,14.28
2018-09-10T06:10:01.569Z,14.37
2018-09-10T06:12:31.341Z,14.35
2018-09-10T06:15:01.136Z,14.44
2018-09-10T06:17:30.987Z,14.57
2018-09-10T06:20:00.747Z,14.67
2018-09-10T06:22:30.504Z,14.65
2018-09-10T06:25:00.353Z,14.72
2018-09-10T06:27:30.179Z,15.39
2018-09-10T06:30:00.281Z,17.60
2018-09-10T06:32:30.005Z,19.63
2018-09-10T06:35:00.390Z,21.74
2018-09-10T06:37:30.861Z,22.72
2018-09-10T06:40:01.221Z,24.04
2018-09-10T06:42:31.709Z,24.41
2018-09-10T06:45:02.060Z,25.00
2018-09-10T06:47:32.451Z,26.01
2018-09-10T06:50:03.103Z,25.44
2018-09-10T06:52:33.473Z,24.57
2018-09-10T06:55:03.883Z,23.25
2018-09-10T06:57:34.555Z,23.41
2018-09-10T07:00:04.995Z,23.41
2018-09-10T07:02:35.535Z,23.93
2018-09-10T07:05:06.741Z,23.70
2018-09-10T07:07:37.147Z,24.30
2018-09-10T07:10:08.541Z,24.48
2018-09-10T07:12:39.003Z,24.83
2018-09-10T07:15:10.267Z,24.45
2018-09-10T07:17:40.753Z,25.17
2018-09-10T07:20:11.156Z,26.19
2018-09-10T07:22:41.673Z,26.58
2018-09-10T07:25:12.043Z,26.32
2018-09-10T07:27:42.653Z,25.32
2018-09-10T07:30:13.021Z,26.02
2018-09-10T07:32:43.385Z,26.80
2018-09-10T07:35:13.735Z,27.19
2018-09-10T07:37:44.147Z,28.15
2018-09-10T07:40:14.639Z,29.06
2018-09-10T07:42:44.815Z,29.78
2018-09-10T07:45:14.939Z,30.21
2018-09-10T07:47:45.661Z,30.26
2018-09-10T07:50:15.789Z,30.79
2018-09-10T07:52:45.933Z,31.29
2018-09-10T07:55:16.117Z,31.31
2018-09-10T07:57:46.269Z,29.02
2018-09-10T08:00:16.661Z,27.03
2018-09-10T08:02:47.011Z,26.63
2018-09-10T08:05:17.763Z,26.48
2018-09-10T08:07:48.247Z,26.82
2018-09-10T08:10:18.605Z,25.86
2018-09-10T08:12:49.651Z,26.43
2018-09-10T08:22:07.898Z,24.47
2018-09-10T08:24:38.249Z,24.11
2018-09-10T08:27:08.870Z,24.09
2018-09-10T08:29:39.213Z,24.10
2018-09-10T08:32:09.617Z,23.44
2018-09-10T08:34:40.173Z,22.78
2018-09-10T08:37:10.629Z,22.57
2018-09-10T08:39:40.964Z,22.08
2018-09-10T08:42:11.339Z,21.61
2018-09-10T08:44:42.399Z,21.33
2018-09-10T08:47:13.527Z,21.37
2018-09-10T08:49:44.018Z,21.26
2018-09-10T08:52:14.481Z,21.47
2018-09-10T08:54:45.350Z,21.61
2018-09-10T08:57:15.759Z,21.76
2018-09-10T08:59:46.227Z,22.03
2018-09-10T09:02:17.011Z,22.07
2018-09-10T09:04:47.428Z,22.17
2018-09-10T09:07:17.829Z,22.26
2018-09-10T09:09:48.246Z,22.65
2018-09-10T09:12:18.717Z,22.58
2018-09-10T09:14:49.072Z,22.94
2018-09-10T09:17:19.521Z,23.02
2018-09-10T09:19:50.316Z,23.10
2018-09-10T09:22:20.639Z,23.17
2018-09-10T09:24:51.328Z,22.96
2018-09-10T09:27:21.850Z,23.06
2018-09-10T09:29:52.199Z,23.30
2018-09-10T09:32:22.720Z,23.41
2018-09-10T09:34:56.541Z,23.36
2018-09-10T09:37:32.199Z,23.29
2018-09-10T09:40:07.606Z,23.38
2018-09-10T09:42:43.313Z,23.28
2018-09-10T09:45:18.972Z,23.53
2018-09-10T09:47:49.667Z,23.95
2018-09-10T09:50:20.099Z,24.31
2018-09-10T09:52:50.854Z,24.32
2018-09-10T09:55:21.230Z,24.69
2018-09-10T09:57:51.731Z,24.98
2018-09-10T10:00:27.311Z,24.78
2018-09-10T10:03:01.870Z,24.74
2018-09-10T10:05:32.219Z,25.03
2018-09-10T10:08:03.104Z,25.02
2018-09-10T10:10:33.567Z,25.37
2018-09-10T10:13:04.016Z,25.43
2018-09-10T10:15:34.971Z,25.90
2018-09-10T10:18:05.447Z,26.25
2018-09-10T10:20:35.908Z,26.58
2018-09-10T10:23:07.605Z,26.95
2018-09-10T10:25:37.956Z,26.52
2018-09-10T10:28:08.360Z,26.22
2018-09-10T10:30:39.012Z,26.37
2018-09-10T10:33:09.412Z,26.35
2018-09-10T10:35:39.857Z,26.36
2018-09-10T10:38:10.180Z,26.42
2018-09-10T10:40:40.566Z,26.59
2018-09-10T10:43:11.004Z,26.30
2018-09-10T10:45:41.484Z,26.46
2018-09-10T10:48:11.933Z,26.62
2018-09-10T10:50:42.889Z,26.60
2018-09-10T10:53:13.280Z,26.30
2018-09-10T10:55:43.576Z,25.74
2018-09-10T10:58:14.038Z,25.80
2018-09-10T11:00:44.472Z,25.78
2018-09-10T11:03:14.781Z,25.88
2018-09-10T11:05:45.088Z,26.18
2018-09-10T11:08:15.388Z,26.74
2018-09-10T11:10:45.763Z,27.13
2018-09-10T11:13:16.072Z,27.46
2018-09-10T11:15:46.651Z,27.44
2018-09-10T11:18:17.029Z,27.83
2018-09-10T11:20:47.095Z,27.69
2018-09-10T11:23:17.426Z,27.84
2018-09-10T11:25:47.493Z,27.86
2018-09-10T11:28:17.596Z,28.23
2018-09-10T11:30:47.696Z,28.04
2018-09-10T11:33:17.831Z,28.26
2018-09-10T11:35:47.947Z,28.12
2018-09-10T11:38:18.060Z,28.47
2018-09-10T11:40:48.262Z,28.35
2018-09-10T11:43:18.410Z,27.93
2018-09-10T11:45:48.676Z,27.76
2018-09-10T11:48:18.948Z,27.30
2018-09-10T11:50:49.420Z,26.77
2018-09-10T11:53:19.746Z,26.89
2018-09-10T11:55:50.459Z,27.21
2018-09-10T11:58:20.722Z,27.12
2018-09-10T12:00:51.467Z,26.87
2018-09-10T12:03:21.851Z,27.28
2018-09-10T12:05:51.984Z,27.72
2018-09-10T12:08:22.074Z,27.98
2018-09-10T12:10:52.276Z,28.17
2018-09-10T12:13:22.365Z,28.45
2018-09-10T12:15:52.452Z,28.55
2018-09-10T12:18:22.791Z,28.80
2018-09-10T12:20:52.808Z,28.47
2018-09-10T12:23:23.222Z,28.82
2018-09-10T12:25:53.271Z,28.89
2018-09-10T12:28:23.334Z,28.81
2018-09-10T12:30:53.914Z,28.98
2018-09-10T12:33:24.021Z,28.78
2018-09-10T12:35:55.469Z,28.53
2018-09-10T12:38:26.263Z,28.80
2018-09-10T12:40:56.536Z,28.91
2018-09-10T12:43:27.435Z,28.53
2018-09-10T12:45:57.657Z,28.62
2018-09-10T12:48:28.039Z,28.73
2018-09-10T12:50:58.449Z,28.82
2018-09-10T12:53:28.593Z,28.80
2018-09-10T12:55:58.679Z,28.69
2018-09-10T12:58:28.735Z,28.67
2018-09-10T13:00:59.176Z,28.84
2018-09-10T13:03:29.265Z,28.82
2018-09-10T13:05:59.288Z,28.97
2018-09-10T13:08:29.357Z,29.26
2018-09-10T13:10:59.460Z,29.23
2018-09-10T13:13:29.964Z,29.46
2018-09-10T13:16:00.009Z,29.11
2018-09-10T13:18:30.126Z,29.14
2018-09-10T13:21:00.168Z,28.94
2018-09-10T13:23:30.232Z,28.76
2018-09-10T13:26:00.307Z,28.91
2018-09-10T13:28:30.401Z,29.01
2018-09-10T13:31:00.776Z,29.00
2018-09-10T13:33:31.034Z,28.85
2018-09-10T13:36:01.115Z,28.88
2018-09-10T13:38:32.533Z,28.89
2018-09-10T13:41:03.051Z,28.69
2018-09-10T13:43:33.129Z,28.83
2018-09-10T13:46:03.221Z,28.50
2018-09-10T13:48:33.545Z,28.14
2018-09-10T13:51:03.983Z,28.17
2018-09-10T13:53:34.052Z,27.98
2018-09-10T13:56:04.455Z,28.42
2018-09-10T13:58:34.477Z,28.54
2018-09-10T14:01:04.525Z,28.54
2018-09-10T14:03:34.916Z,28.56
2018-09-10T14:06:05.000Z,28.59
2018-09-10T14:08:35.081Z,28.44
2018-09-10T14:11:05.373Z,28.45
2018-09-10T14:13:35.611Z,28.61
2018-09-10T14:16:05.840Z,28.55
2018-09-10T14:18:36.902Z,28.50
2018-09-10T14:21:07.427Z,28.37
2018-09-10T14:23:37.745Z,28.43
2018-09-10T14:26:08.244Z,28.37
2018-09-10T14:28:38.571Z,28.54
2018-09-10T14:31:08.877Z,28.31
2018-09-10T14:33:39.028Z,28.44
2018-09-10T14:36:09.103Z,28.35
2018-09-10T14:38:39.208Z,28.21
2018-09-10T14:41:09.749Z,28.38
2018-09-10T14:43:39.891Z,28.21
2018-09-10T14:46:10.141Z,28.09
2018-09-10T14:48:40.229Z,28.08
2018-09-10T14:51:10.485Z,28.06
2018-09-10T14:53:40.758Z,27.94
2018-09-10T14:56:11.009Z,27.95
2018-09-10T14:58:41.686Z,27.91
2018-09-10T15:01:12.124Z,27.98
2018-09-10T15:03:42.214Z,28.15
2018-09-10T15:06:12.298Z,28.28
2018-09-10T15:08:42.490Z,28.44
2018-09-10T15:11:12.653Z,28.40
2018-09-10T15:13:42.677Z,28.33
2018-09-10T15:16:13.043Z,28.13
2018-09-10T15:18:43.175Z,28.04
2018-09-10T15:21:13.358Z,27.91
2018-09-10T15:23:43.409Z,27.85
2018-09-10T15:26:13.576Z,27.71
2018-09-10T15:28:43.800Z,27.53
2018-09-10T15:31:14.284Z,27.57
2018-09-10T15:33:44.322Z,27.51
2018-09-10T15:36:14.352Z,27.59
2018-09-10T15:38:44.400Z,27.52
2018-09-10T15:41:14.639Z,27.51
2018-09-10T15:43:45.089Z,27.42
2018-09-10T15:46:15.493Z,27.45
2018-09-10T15:48:46.161Z,27.38
2018-09-10T15:51:16.245Z,27.35
2018-09-10T15:53:46.871Z,27.32
2018-09-10T15:56:17.236Z,27.25
2018-09-10T15:58:47.345Z,27.21
2018-09-10T16:01:17.394Z,27.22
2018-09-10T16:03:47.835Z,27.12
2018-09-10T16:06:17.927Z,27.03
2018-09-10T16:08:48.255Z,26.91
2018-09-10T16:11:18.616Z,26.83
2018-09-10T16:13:48.736Z,26.82
2018-09-10T16:16:18.798Z,26.67
2018-09-10T16:18:48.882Z,26.59
2018-09-10T16:21:19.257Z,26.56
2018-09-10T16:23:49.306Z,26.42
2018-09-10T16:26:19.643Z,26.33
2018-09-10T16:28:50.115Z,26.25
2018-09-10T16:31:20.490Z,26.13
2018-09-10T16:33:50.952Z,25.96
2018-09-10T16:36:21.451Z,25.94
2018-09-10T16:38:51.844Z,25.93
2018-09-10T16:41:22.212Z,25.74
2018-09-10T16:43:52.815Z,25.62
2018-09-10T16:46:23.169Z,25.63
2018-09-10T16:48:54.185Z,25.41
2018-09-10T16:51:24.577Z,25.22
2018-09-10T16:53:55.014Z,25.17
2018-09-10T16:56:25.510Z,25.00
2018-09-10T16:58:55.867Z,24.90
2018-09-10T17:01:26.952Z,24.86
2018-09-10T17:03:57.348Z,24.71
2018-09-10T17:06:28.845Z,24.51
2018-09-10T17:08:59.213Z,24.31
2018-09-10T17:11:29.668Z,24.25
2018-09-10T17:14:00.071Z,24.14
2018-09-10T17:16:30.668Z,24.19
2018-09-10T17:19:01.367Z,24.20
2018-09-10T17:21:32.554Z,24.00
2018-09-10T17:24:03.176Z,23.97
2018-09-10T17:26:33.600Z,23.90
2018-09-10T17:29:04.004Z,23.99
2018-09-10T17:31:34.421Z,23.87
2018-09-10T17:34:05.307Z,23.81
2018-09-10T17:36:35.644Z,23.75
2018-09-10T17:39:08.427Z,23.68
2018-09-10T17:41:38.843Z,23.42
2018-09-10T17:44:09.273Z,23.23
2018-09-10T17:46:39.678Z,23.13
2018-09-10T17:49:10.238Z,22.99
2018-09-10T17:51:40.953Z,22.89
2018-09-10T17:54:11.426Z,22.76
2018-09-10T17:56:42.203Z,22.64
2018-09-10T17:59:12.577Z,22.48
2018-09-10T18:01:42.979Z,22.34
2018-09-10T18:04:13.360Z,22.24
2018-09-10T18:06:43.693Z,22.12
2018-09-10T18:09:14.157Z,21.99
2018-09-10T18:11:44.544Z,21.95
2018-09-10T18:14:14.888Z,21.85
2018-09-10T18:16:45.300Z,21.79
2018-09-10T18:19:15.799Z,21.66
2018-09-10T18:21:46.511Z,21.59
2018-09-10T18:24:16.917Z,21.56
2018-09-10T18:26:47.339Z,21.43
2018-09-10T18:29:17.704Z,21.33
2018-09-10T18:31:48.141Z,21.36
2018-09-10T18:34:19.200Z,21.36
2018-09-10T18:36:49.701Z,21.30
2018-09-10T18:39:20.335Z,21.36
2018-09-10T18:41:50.772Z,21.32
2018-09-10T18:44:21.425Z,21.31
2018-09-10T18:46:52.202Z,21.19
2018-09-10T18:49:22.649Z,21.03
2018-09-10T18:51:53.019Z,20.84
2018-09-10T18:55:04.545Z,20.71
2018-09-10T18:57:34.951Z,20.49
2018-09-10T19:00:06.013Z,20.32
2018-09-10T19:02:36.445Z,20.21
2018-09-10T19:05:06.905Z,20.10
2018-09-10T19:11:13.403Z,19.82
2018-09-10T19:13:43.807Z,19.70
2018-09-10T19:16:14.605Z,19.53
2018-09-10T19:18:45.036Z,19.51
2018-09-10T19:21:15.453Z,19.42
2018-09-10T19:23:45.942Z,19.32
2018-09-10T19:26:16.321Z,19.30
2018-09-10T19:28:46.718Z,19.29
2018-09-10T19:31:17.217Z,19.25
2018-09-10T19:33:47.657Z,19.19
2018-09-10T19:36:18.095Z,19.18
2018-09-10T19:38:48.539Z,19.19
2018-09-10T19:41:18.859Z,19.21
2018-09-10T19:43:49.578Z,19.18
2018-09-10T19:46:19.979Z,19.30
2018-09-10T19:52:26.488Z,19.32
2018-09-10T19:54:56.948Z,19.25
2018-09-10T19:57:27.650Z,19.33
2018-09-10T19:59:58.025Z,19.26
2018-09-10T20:02:28.560Z,19.19
2018-09-10T20:04:59.573Z,19.14
2018-09-10T20:07:30.792Z,19.09
2018-09-10T20:10:01.304Z,19.04
2018-09-10T20:12:31.816Z,19.05
2018-09-10T20:15:02.287Z,19.07
2018-09-10T20:17:32.911Z,18.96
2018-09-10T20:20:03.284Z,18.92
2018-09-10T20:22:33.704Z,18.91
2018-09-10T20:25:04.160Z,18.88
2018-09-10T20:27:34.907Z,18.83
2018-09-10T20:30:05.885Z,18.81
2018-09-10T20:32:36.338Z,18.80
2018-09-10T20:35:07.254Z,18.73
2018-09-10T20:37:37.283Z,18.70
2018-09-10T20:40:07.731Z,18.59
2018-09-10T20:42:38.147Z,18.61
2018-09-10T20:45:09.316Z,18.60
2018-09-10T20:47:40.249Z,18.67
2018-09-10T20:50:11.022Z,18.71
2018-09-10T20:52:40.755Z,18.65
2018-09-10T20:55:11.226Z,18.56
2018-09-10T20:57:41.858Z,18.61
2018-09-10T21:00:12.284Z,18.59
2018-09-10T21:02:42.722Z,18.59
2018-09-10T21:05:13.084Z,18.61
2018-09-10T21:07:43.546Z,18.43
2018-09-10T21:10:13.470Z,18.43
2018-09-10T21:12:43.831Z,18.46
2018-09-10T21:15:14.321Z,18.41
2018-09-10T21:17:45.095Z,18.39
2018-09-10T21:20:14.884Z,18.46
2018-09-10T21:22:44.779Z,18.50
2018-09-10T21:25:15.239Z,18.41
2018-09-10T21:27:45.648Z,18.42
2018-09-10T21:30:16.012Z,18.37
2018-09-10T21:32:46.472Z,18.35
2018-09-10T21:35:16.860Z,18.40
2018-09-10T21:37:47.501Z,18.26
2018-09-10T21:40:17.864Z,18.41
2018-09-10T21:42:48.444Z,18.46
2018-09-10T21:45:18.824Z,18.47
2018-09-10T21:47:49.890Z,18.46
2018-09-10T21:50:20.412Z,18.47
2018-09-10T21:52:50.743Z,18.46
2018-09-10T21:55:21.186Z,18.55
2018-09-10T21:57:51.516Z,18.40
2018-09-10T22:00:22.087Z,18.39
2018-09-10T22:02:52.839Z,18.30
2018-09-10T22:05:22.924Z,18.20
2018-09-10T22:07:53.268Z,18.15
2018-09-10T22:10:23.628Z,18.16
2018-09-10T22:12:53.983Z,18.09
2018-09-10T22:15:24.712Z,18.11
2018-09-10T22:17:55.609Z,18.19
2018-09-10T22:20:26.102Z,18.20
2018-09-10T22:22:56.596Z,18.38
2018-09-10T22:25:27.010Z,18.36
2018-09-10T22:27:57.341Z,18.24
2018-09-10T22:30:27.670Z,18.22
2018-09-10T22:32:58.025Z,18.13
2018-09-10T22:35:28.389Z,18.04
2018-09-10T22:37:58.292Z,17.98
2018-09-10T22:40:28.639Z,17.96
2018-09-10T22:42:59.003Z,17.92
2018-09-10T22:45:29.351Z,17.85
2018-09-10T22:47:59.119Z,17.84
2018-09-10T22:50:28.897Z,17.94
2018-09-10T22:52:58.661Z,17.78
2018-09-10T22:55:28.971Z,17.73
2018-09-10T22:57:58.765Z,17.90
2018-09-10T23:00:28.611Z,17.80
2018-09-10T23:02:58.411Z,17.72
2018-09-10T23:05:28.238Z,17.63
2018-09-10T23:07:58.051Z,17.60
2018-09-10T23:10:27.857Z,17.59
2018-09-10T23:12:57.639Z,17.66
2018-09-10T23:15:27.439Z,17.82
2018-09-10T23:17:57.215Z,17.82
2018-09-10T23:20:27.092Z,17.85
2018-09-10T23:22:57.421Z,17.93
2018-09-10T23:25:27.229Z,17.91
2018-09-10T23:27:56.994Z,17.91
2018-09-10T23:30:26.787Z,17.92
2018-09-10T23:32:56.622Z,17.98
2018-09-10T23:35:26.387Z,17.96
2018-09-10T23:37:56.742Z,17.92
2018-09-10T23:40:27.122Z,17.89
2018-09-10T23:42:56.888Z,17.87
2018-09-10T23:45:26.752Z,17.76
2018-09-10T23:47:56.512Z,17.81
2018-09-10T23:50:26.287Z,17.75
2018-09-10T23:52:56.115Z,17.68
2018-09-10T23:55:25.875Z,17.72
2018-09-10T23:57:55.742Z,17.71
